createdAt,value
2023-05-10T00:00:00.526Z,2.1231
2023-05-10T00:01:01.531Z,1.8385
2023-05-10T00:02:02.572Z,2.3615
2023-05-10T00:03:03.655Z,2.7846
2023-05-10T00:04:04.666Z,2.3308
2023-05-10T00:05:05.612Z,2.2154
2023-05-10T00:06:06.642Z,1.9000
2023-05-10T00:07:07.692Z,2.0692
2023-05-10T00:08:08.735Z,2.2462
2023-05-10T00:09:09.781Z,2.4923
2023-05-10T00:10:10.757Z,2.3769
2023-05-10T00:11:11.811Z,2.3846
2023-05-10T00:12:12.794Z,2.1923
2023-05-10T00:13:13.960Z,1.8923
2023-05-10T00:14:14.928Z,2.5923
2023-05-10T00:15:15.943Z,2.0538
2023-05-10T00:16:17.028Z,1.9846
2023-05-10T00:17:18.016Z,1.9308
2023-05-10T00:18:19.028Z,2.0154
2023-05-10T00:19:20.089Z,2.4154
2023-05-10T00:20:21.051Z,2.0538
2023-05-10T00:21:22.090Z,2.2077
2023-05-10T00:22:23.126Z,2.0077
2023-05-10T00:23:24.195Z,2.6231
2023-05-10T00:24:25.234Z,2.6231
2023-05-10T00:25:26.213Z,2.2846
2023-05-10T00:26:27.233Z,2.3385
2023-05-10T00:27:28.275Z,1.7769
2023-05-10T00:28:29.342Z,2.4462
2023-05-10T00:29:30.408Z,2.6385
2023-05-10T00:30:31.378Z,2.4308
2023-05-10T00:31:32.421Z,3.3077
2023-05-10T00:32:33.453Z,2.4462
2023-05-10T00:33:34.486Z,1.8231
2023-05-10T00:34:35.502Z,2.5615
2023-05-10T00:35:36.529Z,2.3000
2023-05-10T00:36:37.534Z,2.6077
2023-05-10T00:37:38.580Z,2.8615
2023-05-10T00:38:39.648Z,2.2154
2023-05-10T00:39:40.702Z,3.3538
2023-05-10T00:40:41.718Z,2.5769
2023-05-10T00:41:42.737Z,2.4769
2023-05-10T00:42:43.719Z,2.8231
2023-05-10T00:43:44.750Z,3.0462
2023-05-10T00:44:45.815Z,3.4231
2023-05-10T00:45:46.885Z,2.9077
2023-05-10T00:46:47.862Z,2.4385
2023-05-10T00:47:48.911Z,2.7923
2023-05-10T00:48:49.929Z,3.1077
2023-05-10T00:49:50.931Z,2.7077
2023-05-10T00:50:51.987Z,2.9077
2023-05-10T00:51:53.012Z,3.0846
2023-05-10T00:52:54.025Z,4.1077
2023-05-10T00:53:55.033Z,3.0231
2023-05-10T00:54:56.092Z,2.9615
2023-05-10T00:55:57.139Z,3.8538
2023-05-10T00:56:58.213Z,2.7615
2023-05-10T00:57:59.153Z,3.1692
2023-05-10T00:59:00.214Z,2.5154
2023-05-10T01:00:01.235Z,2.6308
2023-05-10T01:01:02.349Z,2.5308
2023-05-10T01:02:03.364Z,2.6231
2023-05-10T01:03:04.394Z,2.3077
2023-05-10T01:04:05.356Z,3.1692
2023-05-10T01:05:06.476Z,2.6923
2023-05-10T01:06:07.454Z,2.9154
2023-05-10T01:07:08.497Z,3.0692
2023-05-10T01:08:09.478Z,2.4308
2023-05-10T01:09:10.518Z,2.9538
2023-05-10T01:10:11.543Z,2.1846
2023-05-10T01:11:12.596Z,2.7615
2023-05-10T01:12:13.688Z,4.8385
2023-05-10T01:13:14.739Z,3.1846
2023-05-10T01:14:15.697Z,2.6231
2023-05-10T01:15:16.712Z,2.9769
2023-05-10T01:16:17.829Z,2.5385
2023-05-10T01:17:18.822Z,2.8000
2023-05-10T01:18:19.781Z,4.3154
2023-05-10T01:19:20.893Z,2.4615
2023-05-10T01:20:21.917Z,2.5385
2023-05-10T01:21:23.026Z,3.3692
2023-05-10T01:22:24.017Z,2.9538
2023-05-10T01:23:25.019Z,3.5462
2023-05-10T01:24:26.062Z,2.6538
2023-05-10T01:25:27.036Z,2.6692
2023-05-10T01:26:28.115Z,2.4385
2023-05-10T01:27:29.136Z,3.1692
2023-05-10T01:28:30.200Z,2.7231
2023-05-10T01:29:31.197Z,3.3231
2023-05-10T01:30:32.250Z,3.0769
2023-05-10T01:31:33.312Z,3.5077
2023-05-10T01:32:34.344Z,2.8769
2023-05-10T01:33:35.297Z,3.8538
2023-05-10T01:34:36.337Z,3.7923
2023-05-10T01:35:37.358Z,3.1769
2023-05-10T01:36:38.465Z,3.5846
2023-05-10T01:37:39.460Z,3.5846
2023-05-10T01:38:40.477Z,3.4615
2023-05-10T01:39:41.476Z,4.1000
2023-05-10T01:40:42.515Z,3.5615
2023-05-10T01:41:43.533Z,3.1846
2023-05-10T01:42:44.622Z,3.5154
2023-05-10T01:43:45.594Z,3.2154
2023-05-10T01:44:46.739Z,3.8000
2023-05-10T01:45:47.736Z,3.6462
2023-05-10T01:46:48.845Z,4.3308
2023-05-10T01:47:49.868Z,4.1769
2023-05-10T01:48:50.852Z,3.4538
2023-05-10T01:49:51.868Z,4.7615
2023-05-10T01:50:52.893Z,3.3615
2023-05-10T01:51:53.968Z,3.6769
2023-05-10T01:52:55.012Z,3.2923
2023-05-10T01:53:55.993Z,3.3308
2023-05-10T01:54:57.010Z,3.0154
2023-05-10T01:55:58.032Z,2.9538
2023-05-10T01:56:59.130Z,3.4385
2023-05-10T01:58:00.178Z,3.5308
2023-05-10T01:59:01.182Z,3.5846
2023-05-10T02:00:02.163Z,3.3462
2023-05-10T02:01:03.211Z,3.0846
2023-05-10T02:02:04.292Z,3.8923
2023-05-10T02:03:05.359Z,3.3000
2023-05-10T02:04:06.425Z,3.3923
2023-05-10T02:05:07.291Z,3.4846
2023-05-10T02:06:08.337Z,3.5077
2023-05-10T02:07:09.405Z,3.1385
2023-05-10T02:08:10.500Z,3.3385
2023-05-10T02:09:11.470Z,3.8077
2023-05-10T02:10:12.475Z,3.5846
2023-05-10T02:11:13.496Z,3.9000
2023-05-10T02:12:14.571Z,3.7923
2023-05-10T02:13:15.596Z,4.5923
2023-05-10T02:14:16.670Z,3.4692
2023-05-10T02:15:17.612Z,3.8385
2023-05-10T02:16:18.665Z,4.3308
2023-05-10T02:17:19.737Z,3.2308
2023-05-10T02:18:20.785Z,3.8846
2023-05-10T02:19:21.774Z,3.3923
2023-05-10T02:20:22.760Z,3.7846
2023-05-10T02:21:23.771Z,3.9692
2023-05-10T02:22:24.828Z,3.5846
2023-05-10T02:23:25.900Z,3.3000
2023-05-10T02:24:26.908Z,3.5538
2023-05-10T02:25:27.896Z,3.7231
2023-05-10T02:26:29.028Z,3.4538
2023-05-10T02:27:30.032Z,3.8231
2023-05-10T02:28:31.035Z,4.1692
2023-05-10T02:29:32.053Z,3.8000
2023-05-10T02:30:33.034Z,3.4615
2023-05-10T02:31:34.115Z,3.3308
2023-05-10T02:32:35.199Z,3.8154
2023-05-10T02:33:36.175Z,3.1923
2023-05-10T02:34:37.192Z,3.7077
2023-05-10T02:35:38.186Z,3.4846
2023-05-10T02:36:39.205Z,3.7462
2023-05-10T02:37:40.234Z,3.0846
2023-05-10T02:38:41.334Z,3.2308
2023-05-10T02:39:42.340Z,3.4231
2023-05-10T02:40:43.322Z,4.7846
2023-05-10T02:41:44.329Z,3.8923
2023-05-10T02:42:45.371Z,4.4231
2023-05-10T02:43:46.477Z,4.1769
2023-05-10T02:44:47.472Z,3.8077
2023-05-10T02:45:48.478Z,3.2846
2023-05-10T02:46:49.473Z,3.5846
2023-05-10T02:47:50.581Z,3.7308
2023-05-10T02:48:51.610Z,4.3846
2023-05-10T02:49:52.617Z,3.8154
2023-05-10T02:50:53.622Z,3.4308
2023-05-10T02:51:54.637Z,3.2769
2023-05-10T02:52:55.655Z,4.2231
2023-05-10T02:53:56.774Z,4.2615
2023-05-10T02:54:57.777Z,3.5000
2023-05-10T02:55:58.774Z,3.7000
2023-05-10T02:56:59.836Z,4.9308
2023-05-10T02:58:00.936Z,4.6000
2023-05-10T02:59:01.931Z,4.5462
2023-05-10T03:00:03.022Z,3.6385
2023-05-10T03:01:03.978Z,4.1923
2023-05-10T03:02:04.953Z,4.5538
2023-05-10T03:03:06.020Z,4.9000
2023-05-10T03:04:07.189Z,4.6462
2023-05-10T03:05:08.172Z,3.6769
2023-05-10T03:06:09.112Z,3.6154
2023-05-10T03:07:10.333Z,4.2462
2023-05-10T03:08:11.214Z,4.5615
2023-05-10T03:09:12.256Z,4.6538
2023-05-10T03:10:13.283Z,4.4077
2023-05-10T03:11:14.266Z,4.6462
2023-05-10T03:12:15.317Z,5.2077
2023-05-10T03:13:16.349Z,4.8846
2023-05-10T03:14:17.412Z,4.6385
2023-05-10T03:15:18.456Z,4.4923
2023-05-10T03:16:19.517Z,3.5538
2023-05-10T03:17:20.471Z,4.2308
2023-05-10T03:18:21.590Z,4.5462
2023-05-10T03:19:22.622Z,4.0692
2023-05-10T03:20:23.584Z,4.7692
2023-05-10T03:21:24.614Z,5.3923
2023-05-10T03:22:25.602Z,3.6000
2023-05-10T03:23:26.629Z,4.3308
2023-05-10T03:24:27.716Z,4.4538
2023-05-10T03:25:28.744Z,5.4923
2023-05-10T03:26:29.721Z,4.0077
2023-05-10T03:27:30.747Z,4.9385
2023-05-10T03:28:31.816Z,5.1846
2023-05-10T03:29:32.857Z,4.6462
2023-05-10T03:30:33.969Z,4.8154
2023-05-10T03:31:34.959Z,5.5615
2023-05-10T03:32:35.965Z,5.1154
2023-05-10T03:33:36.983Z,5.6769
2023-05-10T03:34:38.020Z,5.2154
2023-05-10T03:35:39.095Z,5.4692
2023-05-10T03:36:40.123Z,5.2538
2023-05-10T03:37:41.084Z,4.8462
2023-05-10T03:38:42.096Z,4.5538
2023-05-10T03:39:43.198Z,5.2000
2023-05-10T03:40:44.232Z,4.9308
2023-05-10T03:41:45.190Z,6.0923
2023-05-10T03:42:46.298Z,6.0462
2023-05-10T03:43:47.241Z,5.1615
2023-05-10T03:44:48.376Z,4.4923
2023-05-10T03:45:49.341Z,6.1615
2023-05-10T03:46:50.419Z,5.0000
2023-05-10T03:47:51.414Z,5.3692
2023-05-10T03:48:52.399Z,5.2538
2023-05-10T03:49:53.511Z,4.9462
2023-05-10T03:50:54.530Z,4.4154
2023-05-10T03:51:55.515Z,5.0154
2023-05-10T03:52:56.537Z,5.6154
2023-05-10T03:53:57.557Z,5.4846
2023-05-10T03:54:58.628Z,5.3231
2023-05-10T03:55:59.655Z,6.3462
2023-05-10T03:57:00.654Z,5.6154
2023-05-10T03:58:01.708Z,5.8846
2023-05-10T03:59:02.759Z,6.0154
2023-05-10T04:00:03.803Z,5.9154
2023-05-10T04:01:04.816Z,6.2615
2023-05-10T04:02:05.900Z,6.4385
2023-05-10T04:03:06.942Z,6.5846
2023-05-10T04:04:07.907Z,6.1308
2023-05-10T04:05:08.980Z,5.6231
2023-05-10T04:06:09.994Z,6.2692
2023-05-10T04:07:10.958Z,6.4692
2023-05-10T04:08:11.998Z,5.6000
2023-05-10T04:09:13.088Z,5.7308
2023-05-10T04:10:14.372Z,6.2615
2023-05-10T04:11:15.212Z,6.3385
2023-05-10T04:12:16.133Z,6.2692
2023-05-10T04:13:17.177Z,6.4077
2023-05-10T04:14:18.194Z,6.3538
2023-05-10T04:15:19.280Z,6.1154
2023-05-10T04:16:20.309Z,6.2769
2023-05-10T04:17:21.354Z,6.0692
2023-05-10T04:18:22.297Z,5.8385
2023-05-10T04:19:23.420Z,5.6769
2023-05-10T04:20:24.481Z,6.1846
2023-05-10T04:21:25.541Z,6.7077
2023-05-10T04:22:26.509Z,6.0615
2023-05-10T04:23:27.459Z,6.4769
2023-05-10T04:24:28.510Z,6.7154
2023-05-10T04:25:29.536Z,6.8923
2023-05-10T04:26:30.647Z,6.6385
2023-05-10T04:27:31.637Z,6.8923
2023-05-10T04:28:32.666Z,6.8769
2023-05-10T04:29:33.689Z,6.7077
2023-05-10T04:30:34.778Z,5.7154
2023-05-10T04:31:35.842Z,5.9231
2023-05-10T04:32:36.919Z,5.4615
2023-05-10T04:33:37.795Z,6.1000
2023-05-10T04:34:38.845Z,7.4000
2023-05-10T04:35:39.890Z,7.1154
2023-05-10T04:36:40.944Z,7.2462
2023-05-10T04:37:42.021Z,7.2385
2023-05-10T04:38:42.936Z,7.9923
2023-05-10T04:39:43.996Z,7.2154
2023-05-10T04:40:45.021Z,8.8692
2023-05-10T04:41:46.167Z,7.9077
2023-05-10T04:42:47.184Z,6.4615
2023-05-10T04:43:48.189Z,6.8462
2023-05-10T04:44:49.223Z,7.8538
2023-05-10T04:45:50.201Z,7.5000
2023-05-10T04:46:51.292Z,7.1615
2023-05-10T04:47:52.303Z,6.9538
2023-05-10T04:48:53.257Z,5.8231
2023-05-10T04:49:54.369Z,6.6692
2023-05-10T04:50:55.398Z,6.3000
2023-05-10T04:51:56.500Z,5.8385
2023-05-10T04:52:57.416Z,4.8154
2023-05-10T04:54:06.123Z,4.9462
2023-05-10T04:54:59.612Z,5.6385
2023-05-10T04:56:00.515Z,5.1154
2023-05-10T04:57:01.593Z,4.8000
2023-05-10T04:58:02.648Z,5.5462
2023-05-10T04:59:03.635Z,6.0923
2023-05-10T05:00:04.644Z,5.5154
2023-05-10T05:01:05.679Z,4.3077
2023-05-10T05:02:06.831Z,5.0462
2023-05-10T05:03:07.943Z,6.3923
2023-05-10T05:04:08.782Z,4.5692
2023-05-10T05:05:09.794Z,5.3077
2023-05-10T05:06:10.911Z,4.6077
2023-05-10T05:07:11.915Z,4.4154
2023-05-10T05:08:12.968Z,4.5231
2023-05-10T05:09:13.980Z,4.9615
2023-05-10T05:10:15.086Z,4.8615
2023-05-10T05:11:15.998Z,4.6154
2023-05-10T05:12:17.094Z,4.6923
2023-05-10T05:13:18.194Z,4.7462
2023-05-10T05:14:19.095Z,3.8923
2023-05-10T05:15:20.166Z,4.7077
2023-05-10T05:16:21.355Z,3.8077
2023-05-10T05:17:22.357Z,4.8385
2023-05-10T05:18:23.300Z,4.9692
2023-05-10T05:19:24.275Z,5.1923
2023-05-10T05:20:25.391Z,5.3615
2023-05-10T05:21:26.445Z,5.3769
2023-05-10T05:22:27.505Z,4.6385
2023-05-10T05:23:28.567Z,5.1538
2023-05-10T05:24:29.563Z,4.6615
2023-05-10T05:25:30.565Z,5.4308
2023-05-10T05:26:31.580Z,5.5923
2023-05-10T05:27:32.687Z,5.4154
2023-05-10T05:28:33.695Z,5.1923
2023-05-10T05:29:34.745Z,5.3077
2023-05-10T05:30:35.679Z,6.1692
2023-05-10T05:31:36.833Z,5.8231
2023-05-10T05:32:37.931Z,5.9692
2023-05-10T05:33:38.865Z,5.6846
2023-05-10T05:34:39.896Z,7.3077
2023-05-10T05:35:40.914Z,6.3846
2023-05-10T05:36:41.960Z,5.1769
2023-05-10T05:37:43.021Z,5.9615
2023-05-10T05:38:44.027Z,5.5846
2023-05-10T05:39:45.049Z,5.2231
2023-05-10T05:40:46.032Z,6.5231
2023-05-10T05:41:47.143Z,6.2154
2023-05-10T05:42:48.123Z,6.6308
2023-05-10T05:43:49.191Z,6.4231
2023-05-10T05:44:50.136Z,6.2308
2023-05-10T05:45:51.283Z,5.1231
2023-05-10T05:46:52.319Z,6.0923
2023-05-10T05:47:53.404Z,5.0769
2023-05-10T05:48:54.294Z,4.1154
2023-05-10T05:49:55.326Z,4.5923
2023-05-10T05:50:56.346Z,4.8769
2023-05-10T05:51:57.411Z,5.8769
2023-05-10T05:52:58.410Z,4.7846
2023-05-10T05:53:59.540Z,4.7385
2023-05-10T05:55:00.558Z,4.2769
2023-05-10T05:56:01.504Z,4.5462
2023-05-10T05:57:02.581Z,5.0231
2023-05-10T05:58:03.579Z,5.0615
2023-05-10T05:59:04.557Z,4.3154
2023-05-10T06:00:05.704Z,4.3385
2023-05-10T06:01:06.659Z,6.3385
2023-05-10T06:02:07.751Z,6.2231
2023-05-10T06:03:08.838Z,5.7692
2023-05-10T06:04:09.792Z,6.5538
2023-05-10T06:05:10.845Z,5.0154
2023-05-10T06:06:11.835Z,4.9154
2023-05-10T06:07:12.893Z,4.8154
2023-05-10T06:08:13.906Z,5.5231
2023-05-10T06:09:14.874Z,5.8077
2023-05-10T06:10:15.955Z,5.3077
2023-05-10T06:11:17.045Z,4.9538
2023-05-10T06:12:18.049Z,5.4231
2023-05-10T06:13:19.093Z,5.6692
2023-05-10T06:14:20.036Z,5.4692
2023-05-10T06:15:21.151Z,5.1692
2023-05-10T06:16:22.154Z,5.4231
2023-05-10T06:17:23.173Z,7.0923
2023-05-10T06:18:24.197Z,5.1231
2023-05-10T06:19:25.259Z,6.1615
2023-05-10T06:20:26.272Z,5.4846
2023-05-10T06:21:27.272Z,6.2692
2023-05-10T06:22:28.418Z,4.5692
2023-05-10T06:23:29.335Z,5.0692
2023-05-10T06:24:30.436Z,4.7769
2023-05-10T06:25:31.388Z,5.1308
2023-05-10T06:26:32.482Z,4.3000
2023-05-10T06:27:33.541Z,3.9538
2023-05-10T06:28:34.545Z,4.8154
2023-05-10T06:29:35.568Z,4.8000
2023-05-10T06:30:36.611Z,6.3538
2023-05-10T06:31:37.658Z,5.0385
2023-05-10T06:32:38.705Z,5.4231
2023-05-10T06:33:39.726Z,5.1154
2023-05-10T06:34:40.734Z,4.1462
2023-05-10T06:35:41.800Z,4.3231
2023-05-10T06:36:42.755Z,5.7462
2023-05-10T06:37:43.835Z,4.8385
2023-05-10T06:38:44.910Z,4.8923
2023-05-10T06:39:45.924Z,4.9308
2023-05-10T06:40:46.899Z,6.0231
2023-05-10T06:41:47.988Z,3.3615
2023-05-10T06:42:49.005Z,5.1231
2023-05-10T06:43:50.077Z,4.2923
2023-05-10T06:44:51.059Z,3.5615
2023-05-10T06:45:52.159Z,4.1308
2023-05-10T06:46:53.137Z,3.1923
2023-05-10T06:47:54.210Z,3.4000
2023-05-10T06:48:55.204Z,3.5615
2023-05-10T06:49:56.283Z,4.1000
2023-05-10T06:50:57.251Z,3.4308
2023-05-10T06:51:58.325Z,3.4000
2023-05-10T06:52:59.325Z,3.4615
2023-05-10T06:54:00.454Z,2.9923
2023-05-10T06:55:01.440Z,4.3385
2023-05-10T06:56:02.441Z,3.6154
2023-05-10T06:57:04.151Z,4.0538
2023-05-10T06:58:04.585Z,4.6462
2023-05-10T06:59:05.642Z,3.0077
2023-05-10T07:00:06.662Z,2.6538
2023-05-10T07:01:07.818Z,2.8462
2023-05-10T07:02:08.670Z,2.6000
2023-05-10T07:03:09.708Z,2.9231
2023-05-10T07:04:10.746Z,3.1538
2023-05-10T07:05:11.796Z,3.4077
2023-05-10T07:06:21.702Z,2.6077
2023-05-10T07:07:13.844Z,2.9769
2023-05-10T07:08:14.866Z,2.8923
2023-05-10T07:09:15.952Z,2.7000
2023-05-10T07:10:16.956Z,3.1846
2023-05-10T07:11:18.019Z,2.9231
2023-05-10T07:12:19.080Z,2.5231
2023-05-10T07:13:20.131Z,2.2385
2023-05-10T07:14:21.012Z,2.7846
2023-05-10T07:15:22.176Z,2.9231
2023-05-10T07:16:23.293Z,2.9692
2023-05-10T07:17:24.314Z,2.5692
2023-05-10T07:18:25.210Z,2.6615
2023-05-10T07:19:26.322Z,3.4462
2023-05-10T07:20:27.293Z,3.0077
2023-05-10T07:21:28.350Z,2.4692
2023-05-10T07:22:29.293Z,3.2538
2023-05-10T07:23:30.375Z,3.8846
2023-05-10T07:24:31.381Z,2.7769
2023-05-10T07:25:32.452Z,3.3308
2023-05-10T07:26:33.556Z,4.3846
2023-05-10T07:27:34.521Z,4.6692
2023-05-10T07:28:35.620Z,3.6154
2023-05-10T07:29:36.623Z,3.1308
2023-05-10T07:30:37.702Z,3.9077
2023-05-10T07:31:38.775Z,3.8769
2023-05-10T07:32:39.757Z,3.2615
2023-05-10T07:33:40.736Z,3.1385
2023-05-10T07:34:41.733Z,3.8923
2023-05-10T07:35:42.841Z,4.3692
2023-05-10T07:36:43.889Z,3.7077
2023-05-10T07:37:44.879Z,4.7231
2023-05-10T07:38:45.855Z,7.9385
2023-05-10T07:39:46.939Z,12.2231
2023-05-10T07:40:47.999Z,6.4462
2023-05-10T07:41:49.048Z,5.3538
2023-05-10T07:42:50.003Z,4.8846
2023-05-10T07:43:51.078Z,4.9000
2023-05-10T07:44:52.107Z,4.6615
2023-05-10T07:45:56.030Z,4.7692
2023-05-10T07:46:54.249Z,3.4231
2023-05-10T07:47:55.304Z,4.3769
2023-05-10T07:48:56.367Z,6.1923
2023-05-10T07:49:57.276Z,4.9308
2023-05-10T07:50:58.351Z,4.9769
2023-05-10T07:51:59.398Z,3.4385
2023-05-10T07:53:00.366Z,4.7615
2023-05-10T07:54:01.418Z,7.0769
2023-05-10T07:55:02.479Z,6.4538
2023-05-10T07:56:03.595Z,5.3077
2023-05-10T07:57:04.553Z,6.6692
2023-05-10T07:58:05.634Z,10.6308
2023-05-10T07:59:06.601Z,5.8615
2023-05-10T08:00:07.660Z,5.6385
2023-05-10T08:01:08.716Z,5.8538
2023-05-10T08:02:09.753Z,6.5308
2023-05-10T08:03:10.955Z,4.5769
2023-05-10T08:04:11.757Z,4.6615
2023-05-10T08:05:12.770Z,4.6077
2023-05-10T08:06:13.860Z,5.4231
2023-05-10T08:07:14.936Z,5.7769
2023-05-10T08:08:15.976Z,8.7923
2023-05-10T08:09:16.961Z,10.1769
2023-05-10T08:10:17.966Z,9.5615
2023-05-10T08:11:19.060Z,8.0154
2023-05-10T08:12:20.076Z,9.2923
2023-05-10T08:13:21.125Z,7.2308
2023-05-10T08:14:22.119Z,6.3462
2023-05-10T08:15:23.134Z,7.0769
2023-05-10T08:16:24.332Z,8.3538
2023-05-10T08:17:25.314Z,5.0385
2023-05-10T08:18:26.347Z,6.9462
2023-05-10T08:19:27.250Z,5.1615
2023-05-10T08:20:28.367Z,5.7923
2023-05-10T08:21:29.415Z,5.2231
2023-05-10T08:22:30.479Z,8.4462
2023-05-10T08:23:31.417Z,7.5000
2023-05-10T08:24:32.476Z,6.7846
2023-05-10T08:25:33.519Z,6.1154
2023-05-10T08:26:34.658Z,5.8308
2023-05-10T08:27:35.564Z,8.3308
2023-05-10T08:28:36.596Z,8.7615
2023-05-10T08:29:48.878Z,6.9308
2023-05-10T08:30:38.644Z,6.0462
2023-05-10T08:31:39.853Z,6.9308
2023-05-10T08:32:40.820Z,5.8000
2023-05-10T08:33:43.067Z,5.7462
2023-05-10T08:34:42.822Z,6.2923
2023-05-10T08:35:43.820Z,6.4692
2023-05-10T08:36:44.907Z,7.3231
2023-05-10T08:37:45.955Z,6.5385
2023-05-10T08:38:46.956Z,7.1077
2023-05-10T08:39:47.965Z,9.1385
2023-05-10T08:40:49.080Z,5.8385
2023-05-10T08:41:50.067Z,5.4308
2023-05-10T08:42:51.152Z,5.4538
2023-05-10T08:43:52.101Z,5.0385
2023-05-10T08:44:53.159Z,16.9000
2023-05-10T08:45:54.170Z,19.9769
2023-05-10T08:46:55.446Z,17.3538
2023-05-10T08:47:56.351Z,8.7385
2023-05-10T08:48:57.323Z,6.8000
2023-05-10T08:49:58.307Z,5.5615
2023-05-10T08:50:59.367Z,5.2846
2023-05-10T08:52:00.429Z,5.8385
2023-05-10T08:53:01.479Z,8.4462
2023-05-10T08:54:02.497Z,6.5308
2023-05-10T08:55:03.479Z,4.8538
2023-05-10T08:56:04.523Z,6.0462
2023-05-10T08:57:05.677Z,4.7692
2023-05-10T08:58:06.650Z,4.7846
2023-05-10T08:59:07.611Z,7.3769
2023-05-10T09:00:08.677Z,8.6231
2023-05-10T09:01:09.814Z,5.5846
2023-05-10T09:02:10.778Z,12.1154
2023-05-10T09:03:11.791Z,5.7923
2023-05-10T09:04:12.849Z,6.2769
2023-05-10T09:05:13.915Z,5.8462
2023-05-10T09:06:14.825Z,5.1462
2023-05-10T09:07:15.994Z,5.3462
2023-05-10T09:08:16.998Z,5.0923
2023-05-10T09:09:17.935Z,4.3538
2023-05-10T09:10:19.045Z,4.5000
2023-05-10T09:11:20.041Z,5.4538
2023-05-10T09:12:21.056Z,4.7769
2023-05-10T09:13:22.135Z,5.0692
2023-05-10T09:14:23.143Z,5.4615
2023-05-10T09:15:24.215Z,6.5077
2023-05-10T09:16:25.193Z,7.5769
2023-05-10T09:17:26.481Z,4.9077
2023-05-10T09:18:28.113Z,4.8923
2023-05-10T09:19:28.354Z,4.4385
2023-05-10T09:20:29.527Z,5.3385
2023-05-10T09:21:30.453Z,4.0462
2023-05-10T09:22:31.499Z,5.9308
2023-05-10T09:23:32.532Z,5.0462
2023-05-10T09:24:33.546Z,5.1615
2023-05-10T09:25:34.559Z,4.5154
2023-05-10T09:26:35.601Z,3.8923
2023-05-10T09:27:36.726Z,5.3000
2023-05-10T09:28:37.710Z,5.4923
2023-05-10T09:29:38.794Z,5.1615
2023-05-10T09:30:39.760Z,5.5154
2023-05-10T09:31:40.766Z,4.0231
2023-05-10T09:32:41.906Z,5.7615
2023-05-10T09:33:42.870Z,5.0769
2023-05-10T09:34:43.869Z,5.4692
2023-05-10T09:35:44.925Z,4.3308
2023-05-10T09:36:45.915Z,4.5154
2023-05-10T09:37:46.997Z,5.4000
2023-05-10T09:38:48.127Z,4.3462
2023-05-10T09:39:49.098Z,6.0000
2023-05-10T09:40:50.067Z,4.7923
2023-05-10T09:41:51.133Z,3.8538
2023-05-10T09:42:52.222Z,4.9308
2023-05-10T09:43:53.241Z,4.8538
2023-05-10T09:44:54.252Z,6.8923
2023-05-10T09:45:55.253Z,4.5077
2023-05-10T09:46:56.353Z,4.3231
2023-05-10T09:47:57.449Z,4.7000
2023-05-10T09:48:58.466Z,4.4692
2023-05-10T09:49:59.389Z,6.2615
2023-05-10T09:51:00.446Z,5.5077
2023-05-10T09:52:01.469Z,6.1385
2023-05-10T09:53:02.513Z,8.8077
2023-05-10T09:54:03.561Z,8.9385
2023-05-10T09:55:04.551Z,9.1769
2023-05-10T09:56:05.621Z,8.5615
2023-05-10T09:57:06.580Z,12.6923
2023-05-10T09:58:07.778Z,10.2385
2023-05-10T09:59:08.692Z,7.2000
2023-05-10T10:00:09.757Z,5.4077
2023-05-10T10:01:10.783Z,5.1923
2023-05-10T10:02:11.738Z,6.5538
2023-05-10T10:03:12.894Z,4.9923
2023-05-10T10:04:13.934Z,6.1308
2023-05-10T10:05:15.125Z,4.6308
2023-05-10T10:06:29.120Z,4.3154
2023-05-10T10:07:16.923Z,4.6077
2023-05-10T10:08:18.048Z,6.0154
2023-05-10T10:09:19.002Z,5.8846
2023-05-10T10:10:20.093Z,5.0308
2023-05-10T10:11:21.072Z,3.9462
2023-05-10T10:12:22.083Z,4.1308
2023-05-10T10:13:23.175Z,3.4692
2023-05-10T10:14:24.213Z,3.9385
2023-05-10T10:15:25.222Z,4.2462
2023-05-10T10:16:26.296Z,4.1615
2023-05-10T10:17:27.404Z,4.6462
2023-05-10T10:18:28.450Z,4.6692
2023-05-10T10:19:29.376Z,5.1154
2023-05-10T10:20:30.297Z,4.2385
2023-05-10T10:21:31.382Z,4.3231
2023-05-10T10:22:32.470Z,5.5769
2023-05-10T10:23:33.505Z,3.6692
2023-05-10T10:24:34.504Z,3.4692
2023-05-10T10:25:35.465Z,5.6769
2023-05-10T10:26:36.593Z,4.8308
2023-05-10T10:27:37.536Z,4.8385
2023-05-10T10:28:38.649Z,4.6538
2023-05-10T10:29:39.655Z,3.7692
2023-05-10T10:30:40.679Z,4.3385
2023-05-10T10:31:41.737Z,3.7077
2023-05-10T10:32:42.834Z,4.1923
2023-05-10T10:33:44.859Z,3.4308
2023-05-10T10:34:44.851Z,4.2462
2023-05-10T10:35:45.884Z,4.7923
2023-05-10T10:36:46.898Z,4.9615
2023-05-10T10:37:47.970Z,3.8615
2023-05-10T10:38:49.044Z,3.6538
2023-05-10T10:39:49.974Z,5.2154
2023-05-10T10:40:51.001Z,3.8154
2023-05-10T10:41:52.072Z,4.2385
2023-05-10T10:42:53.164Z,5.4308
2023-05-10T10:43:54.138Z,4.5923
2023-05-10T10:44:55.223Z,3.6769
2023-05-10T10:45:56.198Z,4.8385
2023-05-10T10:46:57.207Z,5.1923
2023-05-10T10:47:58.222Z,4.4077
2023-05-10T10:48:59.319Z,4.9308
2023-05-10T10:50:00.380Z,3.2385
2023-05-10T10:51:01.318Z,3.5538
2023-05-10T10:52:02.360Z,2.9692
2023-05-10T10:53:03.431Z,4.6538
2023-05-10T10:54:04.512Z,5.1077
2023-05-10T10:55:05.559Z,5.0154
2023-05-10T10:56:06.497Z,4.0846
2023-05-10T10:57:07.614Z,4.1077
2023-05-10T10:58:08.551Z,6.4846
2023-05-10T10:59:09.661Z,4.9692
2023-05-10T11:00:10.669Z,4.0538
2023-05-10T11:01:11.798Z,4.7538
2023-05-10T11:02:12.674Z,4.2154
2023-05-10T11:03:13.857Z,4.9538
2023-05-10T11:04:14.868Z,5.6077
2023-05-10T11:05:16.106Z,6.2923
2023-05-10T11:06:16.884Z,4.4308
2023-05-10T11:07:17.889Z,5.1615
2023-05-10T11:08:18.929Z,5.2923
2023-05-10T11:09:20.006Z,5.4077
2023-05-10T11:10:21.029Z,4.0154
2023-05-10T11:11:21.995Z,4.1846
2023-05-10T11:12:23.053Z,5.2769
2023-05-10T11:13:24.072Z,4.5692
2023-05-10T11:14:25.156Z,3.7385
2023-05-10T11:15:26.196Z,4.0538
2023-05-10T11:16:27.259Z,4.0769
2023-05-10T11:17:28.228Z,4.5308
2023-05-10T11:18:29.305Z,4.6462
2023-05-10T11:19:30.212Z,5.5308
2023-05-10T11:20:31.275Z,6.5462
2023-05-10T11:21:32.412Z,4.0692
2023-05-10T11:22:33.279Z,4.0462
2023-05-10T11:23:34.311Z,4.8462
2023-05-10T11:24:35.402Z,3.1077
2023-05-10T11:25:36.387Z,4.1231
2023-05-10T11:26:37.419Z,3.5923
2023-05-10T11:27:38.685Z,4.5692
2023-05-10T11:28:39.479Z,7.6692
2023-05-10T11:29:40.563Z,4.9231
2023-05-10T11:30:41.671Z,5.8846
2023-05-10T11:31:42.561Z,6.5769
2023-05-10T11:32:43.647Z,5.5615
2023-05-10T11:33:44.624Z,4.8000
2023-05-10T11:34:45.711Z,5.4846
2023-05-10T11:35:46.723Z,5.4923
2023-05-10T11:36:47.778Z,4.1308
2023-05-10T11:37:48.817Z,4.6308
2023-05-10T11:38:49.884Z,3.6923
2023-05-10T11:39:50.860Z,7.1000
2023-05-10T11:40:51.920Z,5.4615
2023-05-10T11:41:52.929Z,4.4462
2023-05-10T11:42:53.932Z,3.7846
2023-05-10T11:43:54.984Z,5.7462
2023-05-10T11:44:56.055Z,6.2000
2023-05-10T11:45:57.038Z,4.4538
2023-05-10T11:46:58.139Z,6.4769
2023-05-10T11:47:59.139Z,6.4846
2023-05-10T11:49:00.120Z,3.9077
2023-05-10T11:50:01.173Z,5.3462
2023-05-10T11:51:02.209Z,4.6769
2023-05-10T11:52:03.290Z,3.3308
2023-05-10T11:53:04.286Z,4.2231
2023-05-10T11:54:05.561Z,4.5923
2023-05-10T11:55:06.362Z,4.6692
2023-05-10T11:56:07.397Z,2.6385
2023-05-10T11:57:08.426Z,3.6615
2023-05-10T11:58:09.413Z,3.6231
2023-05-10T11:59:10.469Z,3.3462
2023-05-10T12:00:11.522Z,3.2154
2023-05-10T12:01:12.593Z,4.1077
2023-05-10T12:02:13.587Z,3.3615
2023-05-10T12:03:14.728Z,3.2923
2023-05-10T12:04:15.759Z,4.1308
2023-05-10T12:05:16.687Z,3.4462
2023-05-10T12:06:17.749Z,2.5538
2023-05-10T12:07:18.821Z,3.0769
2023-05-10T12:08:19.789Z,3.7308
2023-05-10T12:09:31.478Z,4.0000
2023-05-10T12:10:21.846Z,4.3462
2023-05-10T12:11:22.940Z,3.1538
2023-05-10T12:12:23.955Z,3.3615
2023-05-10T12:13:24.968Z,3.2462
2023-05-10T12:14:26.003Z,4.8615
2023-05-10T12:15:27.032Z,5.8000
2023-05-10T12:16:28.153Z,4.0231
2023-05-10T12:17:29.145Z,3.0769
2023-05-10T12:18:30.205Z,4.6846
2023-05-10T12:19:31.145Z,5.3077
2023-05-10T12:20:32.217Z,4.2615
2023-05-10T12:21:33.244Z,4.6769
2023-05-10T12:22:34.507Z,4.4462
2023-05-10T12:23:35.329Z,5.3000
2023-05-10T12:24:36.344Z,3.8769
2023-05-10T12:25:37.381Z,3.9231
2023-05-10T12:27:14.330Z,4.7154
2023-05-10T12:27:54.299Z,3.5500
2023-05-10T12:28:40.461Z,3.4545
2023-05-10T12:29:42.783Z,4.4769
2023-05-10T12:30:42.500Z,3.6538
2023-05-10T12:31:43.566Z,5.0077
2023-05-10T12:32:44.658Z,4.4077
2023-05-10T12:33:45.630Z,5.1000
2023-05-10T12:34:46.807Z,5.7231
2023-05-10T12:35:47.664Z,7.0231
2023-05-10T12:36:48.731Z,6.0692
2023-05-10T12:37:49.802Z,6.0000
2023-05-10T12:38:50.864Z,4.8538
2023-05-10T12:39:51.835Z,5.1692
2023-05-10T12:40:52.909Z,4.5923